Time;durP1;ratioP1;P1;durP2;ratioP2;P2;SDS_P1;SDS_P2;PMS_P1;PMS_P2;Temp;Humidity;BMP_temperature;BMP_pressure;BME280_temperature;BME280_humidity;BME280_pressure;Samples;Min_cycle;Max_cycle;Signal;HPM_P1;HPM_P2
2021/01/27 00:01:00;;;;;;;5.60;3.20;;;1.00;71.90;;;;;;4995076;28;20026;-62
2021/01/27 00:03:26;;;;;;;6.22;3.35;;;1.00;71.90;;;;;;4980705;28;20026;-63
2021/01/27 00:05:52;;;;;;;4.63;2.78;;;1.00;71.70;;;;;;4998559;28;20046;-62
2021/01/27 00:08:20;;;;;;;7.28;3.47;;;1.00;71.70;;;;;;4993739;28;20073;-63
2021/01/27 00:10:46;;;;;;;9.05;3.20;;;1.00;71.70;;;;;;4996045;28;20026;-62
2021/01/27 00:13:16;;;;;;;5.95;3.08;;;1.00;71.70;;;;;;4998533;28;20029;-62
2021/01/27 00:15:43;;;;;;;9.15;3.20;;;1.00;71.70;;;;;;4998822;28;20042;-62
2021/01/27 00:18:11;;;;;;;6.32;3.60;;;1.00;71.70;;;;;;4979801;28;20038;-62
2021/01/27 00:20:37;;;;;;;4.97;3.40;;;1.00;71.70;;;;;;4997751;28;20130;-63
2021/01/27 00:23:03;;;;;;;6.20;2.97;;;1.00;71.70;;;;;;4996857;28;20128;-61
2021/01/27 00:25:31;;;;;;;5.63;3.30;;;1.00;71.80;;;;;;4995578;28;20105;-62
2021/01/27 00:27:58;;;;;;;5.65;3.13;;;1.00;71.70;;;;;;4997204;28;20068;-63
2021/01/27 00:30:27;;;;;;;7.00;3.20;;;1.00;71.70;;;;;;4996324;28;20506;-61
2021/01/27 00:32:54;;;;;;;6.05;3.42;;;0.90;71.50;;;;;;4979343;28;20084;-63
2021/01/27 00:35:25;;;;;;;5.95;3.03;;;0.90;71.60;;;;;;4995845;28;20446;-63
2021/01/27 00:37:51;;;;;;;4.38;3.05;;;0.90;71.60;;;;;;4994059;28;20524;-63
2021/01/27 00:40:17;;;;;;;5.60;3.30;;;0.90;71.70;;;;;;4978843;28;20121;-63
2021/01/27 00:42:43;;;;;;;6.55;3.03;;;0.90;71.80;;;;;;4995869;28;20148;-62
2021/01/27 00:45:09;;;;;;;5.35;3.08;;;0.90;71.80;;;;;;4996415;28;20055;-63
2021/01/27 00:47:35;;;;;;;8.05;3.10;;;0.90;71.90;;;;;;4980472;28;20060;-62
2021/01/27 00:50:00;;;;;;;6.20;2.92;;;0.90;72.00;;;;;;4997474;28;20121;-62
2021/01/27 00:52:26;;;;;;;5.10;2.80;;;0.90;72.10;;;;;;4996283;28;20027;-63
2021/01/27 00:54:52;;;;;;;4.03;2.45;;;0.80;72.20;;;;;;4997427;28;20049;-63
2021/01/27 00:57:18;;;;;;;4.43;2.65;;;0.90;72.40;;;;;;4997482;28;20043;-61
2021/01/27 00:59:44;;;;;;;3.75;2.60;;;0.90;72.40;;;;;;4980161;28;20047;-62
2021/01/27 01:02:09;;;;;;;4.82;2.85;;;0.90;73.30;;;;;;4996440;28;20489;-63
2021/01/27 01:04:35;;;;;;;5.78;2.97;;;0.90;72.40;;;;;;4997324;28;20095;-62
2021/01/27 01:07:01;;;;;;;8.65;3.38;;;0.90;72.20;;;;;;4978203;28;20108;-63
2021/01/27 01:09:27;;;;;;;4.22;2.67;;;0.90;72.10;;;;;;4996124;28;20376;-62
2021/01/27 01:11:53;;;;;;;5.15;3.20;;;0.90;72.10;;;;;;4994552;28;20031;-57
2021/01/27 01:14:19;;;;;;;4.50;2.90;;;0.90;72.10;;;;;;4979804;28;20897;-63
2021/01/27 01:16:45;;;;;;;6.18;3.10;;;0.80;72.10;;;;;;4977649;28;20126;-62
2021/01/27 01:19:10;;;;;;;4.70;3.08;;;0.80;72.10;;;;;;4993765;28;20128;-63
2021/01/27 01:21:36;;;;;;;5.70;2.65;;;0.70;72.20;;;;;;4997156;28;20034;-62
2021/01/27 01:24:02;;;;;;;4.70;2.75;;;0.70;72.30;;;;;;4979995;28;20042;-62
2021/01/27 01:26:28;;;;;;;6.88;2.90;;;0.60;72.30;;;;;;5000247;28;20081;-63
2021/01/27 01:28:53;;;;;;;3.80;2.70;;;0.60;72.40;;;;;;4997123;28;20035;-63
2021/01/27 01:31:19;;;;;;;5.72;2.67;;;0.60;72.40;;;;;;4999700;28;20037;-63
2021/01/27 01:33:45;;;;;;;5.28;2.95;;;0.60;72.50;;;;;;5001362;28;20034;-63
2021/01/27 01:36:10;;;;;;;4.40;2.78;;;0.60;72.60;;;;;;5000369;28;20046;-62
2021/01/27 01:38:36;;;;;;;5.55;2.72;;;0.60;72.60;;;;;;5000924;28;20045;-61
2021/01/27 01:41:04;;;;;;;6.75;2.88;;;0.60;72.50;;;;;;5000731;28;20513;-63
2021/01/27 01:43:29;;;;;;;6.15;2.97;;;0.60;72.40;;;;;;4999874;28;20033;-62
2021/01/27 01:45:56;;;;;;;4.03;2.70;;;0.60;72.40;;;;;;5000570;28;20045;-62
2021/01/27 01:48:25;;;;;;;5.68;2.63;;;0.60;72.20;;;;;;4981894;28;20040;-63
2021/01/27 01:50:58;;;;;;;6.63;3.00;;;0.60;72.10;;;;;;5000730;28;20048;-62
2021/01/27 01:53:24;;;;;;;5.30;2.85;;;0.60;72.90;;;;;;5001463;28;20030;-63
2021/01/27 01:55:54;;;;;;;3.08;2.58;;;0.60;73.00;;;;;;4998687;28;20044;-62
2021/01/27 01:58:21;;;;;;;6.00;2.80;;;0.50;72.00;;;;;;4998340;28;20030;-66
2021/01/27 02:00:51;;;;;;;5.38;2.67;;;0.50;72.00;;;;;;4998636;28;20358;-63
2021/01/27 02:03:17;;;;;;;4.07;2.88;;;0.50;72.20;;;;;;4999736;28;20035;-63
2021/01/27 02:05:44;;;;;;;4.68;2.70;;;0.50;72.30;;;;;;4999282;28;20455;-62
2021/01/27 02:08:09;;;;;;;7.82;2.55;;;0.50;72.20;;;;;;4983441;28;20034;-63
2021/01/27 02:10:35;;;;;;;3.97;2.58;;;0.50;72.30;;;;;;4995061;28;20588;-62
2021/01/27 02:13:07;;;;;;;7.22;2.55;;;0.50;72.20;;;;;;5000557;28;20042;-63
2021/01/27 02:15:57;;;;;;;6.50;3.10;;;0.50;72.20;;;;;;4999834;28;20061;-62
2021/01/27 02:18:51;;;;;;;4.80;2.85;;;0.50;72.20;;;;;;4998690;28;20073;-63
2021/01/27 02:22:01;;;;;;;7.63;2.67;;;0.50;72.20;;;;;;4982854;28;20061;-63
2021/01/27 02:24:39;;;;;;;5.65;3.20;;;0.50;72.10;;;;;;4944625;28;20051;-62
2021/01/27 02:27:17;;;;;;;5.53;3.05;;;0.50;72.20;;;;;;4958444;28;20043;-63
2021/01/27 02:30:04;;;;;;;5.20;2.70;;;0.50;72.00;;;;;;4970080;28;20580;-61
2021/01/27 02:32:48;;;;;;;4.32;2.90;;;0.50;72.00;;;;;;4997193;28;20095;-63
2021/01/27 02:35:22;;;;;;;4.47;2.45;;;0.50;72.00;;;;;;4999667;28;20041;-62
2021/01/27 02:38:14;;;;;;;6.43;2.55;;;0.60;71.90;;;;;;4989361;28;20125;-63
2021/01/27 02:40:54;;;;;;;4.85;2.50;;;0.60;71.90;;;;;;4998350;28;20041;-63
2021/01/27 02:43:36;;;;;;;4.43;2.60;;;0.60;71.90;;;;;;4982525;28;20050;-63
2021/01/27 02:46:10;;;;;;;3.47;2.10;;;0.60;71.90;;;;;;4999812;28;20522;-63
2021/01/27 02:48:57;;;;;;;4.40;2.50;;;0.70;72.00;;;;;;4997404;28;20050;-62
2021/01/27 02:51:31;;;;;;;3.17;2.50;;;0.70;71.90;;;;;;4998902;28;20033;-63
2021/01/27 02:54:07;;;;;;;5.35;2.40;;;0.70;71.90;;;;;;4981541;28;20030;-62
2021/01/27 02:56:42;;;;;;;5.53;2.70;;;0.70;71.80;;;;;;4980982;28;20194;-63
2021/01/27 02:59:20;;;;;;;5.47;2.67;;;0.80;71.90;;;;;;4998273;28;20121;-63
2021/01/27 03:01:57;;;;;;;5.38;2.70;;;0.80;71.80;;;;;;4998037;28;20097;-62
2021/01/27 03:04:27;;;;;;;4.65;2.60;;;0.80;71.50;;;;;;4999540;28;20034;-63
2021/01/27 03:06:56;;;;;;;6.40;2.67;;;0.80;71.50;;;;;;4979488;28;20077;-60
2021/01/27 03:09:35;;;;;;;4.80;2.67;;;0.80;71.30;;;;;;5000490;28;20096;-62
2021/01/27 03:12:02;;;;;;;4.65;2.72;;;0.80;71.20;;;;;;4993620;28;20136;-63
2021/01/27 03:14:27;;;;;;;5.10;2.90;;;0.80;71.30;;;;;;4971176;28;20084;-63
2021/01/27 03:17:05;;;;;;;6.80;2.83;;;0.80;71.30;;;;;;4999890;28;20030;-60
2021/01/27 03:19:39;;;;;;;3.70;2.40;;;0.80;71.20;;;;;;4999701;28;20034;-63
2021/01/27 03:22:15;;;;;;;3.03;2.50;;;0.80;71.20;;;;;;4997698;28;20034;-62
2021/01/27 03:24:49;;;;;;;6.35;2.72;;;0.80;71.20;;;;;;4966709;28;20116;-63
2021/01/27 03:27:21;;;;;;;6.60;3.05;;;0.80;71.20;;;;;;4987538;28;20113;-63
2021/01/27 03:29:52;;;;;;;4.55;2.40;;;0.80;71.20;;;;;;4997245;28;20026;-62
2021/01/27 03:32:28;;;;;;;4.93;2.50;;;0.80;71.20;;;;;;4997350;28;20126;-62
2021/01/27 03:35:11;;;;;;;4.03;2.72;;;0.80;71.00;;;;;;4995445;28;20042;-62
2021/01/27 03:37:42;;;;;;;4.47;2.70;;;0.80;70.80;;;;;;4988791;28;20045;-63
2021/01/27 03:40:11;;;;;;;3.42;2.50;;;0.80;70.80;;;;;;4998130;28;20533;-62
2021/01/27 03:42:46;;;;;;;3.50;2.42;;;0.80;70.80;;;;;;4993978;28;20062;-62
2021/01/27 03:45:15;;;;;;;3.53;2.35;;;0.80;70.70;;;;;;4981818;28;20501;-63
2021/01/27 03:47:54;;;;;;;2.85;2.55;;;0.80;70.80;;;;;;4996749;28;20033;-62
2021/01/27 03:50:24;;;;;;;3.15;2.40;;;0.80;70.60;;;;;;4996183;28;20073;-63
2021/01/27 03:53:01;;;;;;;3.38;2.60;;;0.80;70.70;;;;;;4992847;28;20045;-61
2021/01/27 03:55:32;;;;;;;3.92;2.55;;;0.70;70.60;;;;;;4979537;28;20038;-63
2021/01/27 03:58:14;;;;;;;4.97;2.90;;;0.70;70.80;;;;;;4975216;28;20041;-62
2021/01/27 04:00:40;;;;;;;4.13;2.85;;;0.70;70.70;;;;;;4975873;28;20399;-62
2021/01/27 04:03:14;;;;;;;4.55;2.40;;;0.70;70.80;;;;;;4959637;28;20117;-63
2021/01/27 04:05:40;;;;;;;;;;;0.70;70.60;;;;;;4979098;28;20771;-62
2021/01/27 04:08:06;;;;;;;3.70;2.50;;;0.70;70.30;;;;;;4978659;28;20012;-62
2021/01/27 04:10:32;;;;;;;4.05;2.40;;;0.70;70.80;;;;;;4973554;28;20101;-63
2021/01/27 04:12:58;;;;;;;4.57;2.90;;;0.60;70.80;;;;;;4962034;28;20038;-63
2021/01/27 04:15:24;;;;;;;4.13;2.42;;;0.60;70.90;;;;;;4978439;28;20568;-63
2021/01/27 04:17:49;;;;;;;3.75;2.28;;;0.60;71.00;;;;;;4960655;28;20051;-63
2021/01/27 04:20:15;;;;;;;5.85;3.03;;;0.60;71.20;;;;;;4975309;28;20102;-63
2021/01/27 04:22:41;;;;;;;3.60;2.72;;;0.60;71.30;;;;;;4976416;28;20042;-62
2021/01/27 04:25:07;;;;;;;3.47;2.95;;;0.60;71.30;;;;;;4976723;28;20045;-62
2021/01/27 04:27:33;;;;;;;4.57;3.45;;;0.60;71.30;;;;;;4975920;28;20053;-62
2021/01/27 04:29:59;;;;;;;6.82;4.78;;;0.60;71.30;;;;;;4981717;28;20037;-63
2021/01/27 04:32:25;;;;;;;4.65;3.50;;;0.70;71.40;;;;;;4993982;28;20038;-63
2021/01/27 04:34:50;;;;;;;5.18;3.17;;;0.70;71.30;;;;;;4981233;28;20066;-61
2021/01/27 04:37:16;;;;;;;5.35;3.20;;;0.70;71.00;;;;;;4981969;28;20029;-63
2021/01/27 04:39:42;;;;;;;3.30;2.88;;;0.70;70.80;;;;;;4993311;28;20069;-62
2021/01/27 04:42:10;;;;;;;4.63;3.00;;;0.70;70.70;;;;;;4995905;28;20547;-62
2021/01/27 04:44:36;;;;;;;5.32;3.20;;;0.60;70.70;;;;;;4994961;28;20121;-62
2021/01/27 04:47:22;;;;;;;5.88;2.95;;;0.60;70.80;;;;;;4977061;28;20053;-62
2021/01/27 04:49:53;;;;;;;5.18;2.78;;;0.60;71.00;;;;;;4993238;28;20077;-62
2021/01/27 04:52:37;;;;;;;4.30;3.00;;;0.60;71.10;;;;;;4993393;28;20030;-63
2021/01/27 04:55:12;;;;;;;3.27;2.70;;;0.60;71.20;;;;;;4990597;28;20142;-62
2021/01/27 04:57:55;;;;;;;5.90;3.20;;;0.70;71.10;;;;;;4976919;28;20042;-62
2021/01/27 05:00:54;;;;;;;4.10;3.10;;;0.60;70.90;;;;;;4957644;28;20034;-61
2021/01/27 05:03:46;;;;;;;5.50;3.28;;;0.60;70.90;;;;;;4955637;28;20042;-62
2021/01/27 05:06:24;;;;;;;4.18;2.80;;;0.60;71.00;;;;;;4977545;28;20036;-63
2021/01/27 05:09:18;;;;;;;4.90;2.90;;;0.70;71.00;;;;;;4980604;28;20030;-62
2021/01/27 05:11:46;;;;;;;3.85;2.28;;;0.70;70.80;;;;;;4981555;28;20195;-63
2021/01/27 05:14:16;;;;;;;6.32;2.88;;;0.70;70.80;;;;;;4976262;28;20517;-63
2021/01/27 05:16:44;;;;;;;5.65;2.65;;;0.70;70.70;;;;;;4975436;28;20526;-62
2021/01/27 05:19:10;;;;;;;3.95;2.70;;;0.70;70.60;;;;;;4966406;28;20426;-62
2021/01/27 05:21:47;;;;;;;4.38;2.80;;;0.70;70.60;;;;;;4974283;28;20522;-62
2021/01/27 05:24:13;;;;;;;6.07;3.00;;;0.60;70.60;;;;;;4978155;28;20104;-62
2021/01/27 05:26:53;;;;;;;4.80;3.15;;;0.60;70.60;;;;;;4977461;28;20153;-61
2021/01/27 05:29:30;;;;;;;4.85;2.45;;;0.60;70.80;;;;;;4975735;28;20513;-63
2021/01/27 05:31:59;;;;;;;4.00;2.60;;;0.60;70.80;;;;;;4976367;28;20034;-63
2021/01/27 05:34:35;;;;;;;4.30;2.60;;;0.60;70.80;;;;;;4976789;28;20041;-63
2021/01/27 05:37:22;;;;;;;4.10;2.40;;;0.50;70.60;;;;;;4968126;28;20042;-63
2021/01/27 05:39:49;;;;;;;3.28;2.08;;;0.50;71.40;;;;;;4955107;28;20667;-63
2021/01/27 05:42:27;;;;;;;5.20;2.65;;;0.50;70.60;;;;;;4989819;28;20068;-63
2021/01/27 05:44:58;;;;;;;3.50;2.60;;;0.40;70.50;;;;;;4974560;28;20526;-63
2021/01/27 05:47:24;;;;;;;3.20;2.67;;;0.40;70.60;;;;;;4958539;28;20503;-63
2021/01/27 05:49:51;;;;;;;5.68;2.42;;;0.30;70.70;;;;;;4976992;28;20035;-64
2021/01/27 05:52:19;;;;;;;6.70;2.67;;;0.30;70.80;;;;;;4978270;28;20026;-63
2021/01/27 05:54:45;;;;;;;5.40;2.60;;;0.30;70.80;;;;;;4976830;28;20421;-62
2021/01/27 05:57:27;;;;;;;4.55;2.70;;;0.30;70.90;;;;;;4961217;28;20042;-63
2021/01/27 06:00:26;;;;;;;3.97;2.40;;;0.30;71.00;;;;;;4981588;28;20117;-63
2021/01/27 06:02:53;;;;;;;4.05;2.50;;;0.30;71.00;;;;;;4980365;28;20031;-62
2021/01/27 06:05:34;;;;;;;3.40;2.30;;;0.20;71.00;;;;;;4998967;28;20520;-62
2021/01/27 06:08:13;;;;;;;7.90;2.97;;;0.20;71.00;;;;;;4995763;28;20065;-62
2021/01/27 06:10:39;;;;;;;3.55;2.88;;;0.20;71.20;;;;;;4994869;28;20453;-62
2021/01/27 06:13:17;;;;;;;4.43;2.95;;;0.20;71.20;;;;;;4977530;28;20090;-62
2021/01/27 06:15:43;;;;;;;4.97;3.15;;;0.20;71.40;;;;;;4981540;28;20418;-62
2021/01/27 06:18:22;;;;;;;5.00;2.70;;;0.30;71.50;;;;;;4981711;28;20057;-61
2021/01/27 06:20:48;;;;;;;3.58;2.60;;;0.30;71.50;;;;;;4994893;28;20069;-61
2021/01/27 06:23:39;;;;;;;3.80;2.20;;;0.30;71.40;;;;;;4980667;28;20042;-61
2021/01/27 06:26:55;;;;;;;4.78;2.40;;;0.30;71.30;;;;;;4981936;28;20043;-62
2021/01/27 06:29:39;;;;;;;4.57;2.60;;;0.40;70.90;;;;;;4941832;28;20042;-61
2021/01/27 06:32:35;;;;;;;4.47;2.05;;;0.40;71.00;;;;;;4995327;28;20127;-63
2021/01/27 06:35:20;;;;;;;3.40;2.05;;;0.40;70.80;;;;;;4980084;28;20070;-61
2021/01/27 06:37:48;;;;;;;2.22;2.03;;;0.40;70.70;;;;;;4980898;28;20438;-62
2021/01/27 06:40:29;;;;;;;2.78;1.90;;;0.50;70.80;;;;;;4979407;28;20034;-62
2021/01/27 06:43:46;;;;;;;2.40;1.83;;;0.40;70.30;;;;;;4963299;28;20680;-63
2021/01/27 06:46:41;;;;;;;2.92;2.10;;;0.40;70.10;;;;;;4995871;28;20048;-62
2021/01/27 06:49:28;;;;;;;4.10;2.60;;;0.50;70.40;;;;;;4979400;28;20080;-62
2021/01/27 06:52:12;;;;;;;4.70;2.70;;;0.50;70.30;;;;;;4999796;28;20034;-63
2021/01/27 06:54:49;;;;;;;2.77;2.10;;;0.50;70.50;;;;;;4999176;28;20121;-62
2021/01/27 06:57:17;;;;;;;5.10;2.38;;;0.60;70.30;;;;;;4997519;28;20278;-62
2021/01/27 07:00:13;;;;;;;2.22;1.67;;;0.60;70.30;;;;;;4996595;28;20683;-61
2021/01/27 07:02:53;;;;;;;4.55;2.80;;;0.60;71.10;;;;;;4999034;28;20046;-63
2021/01/27 07:05:57;;;;;;;6.20;3.33;;;0.60;70.00;;;;;;4999619;28;20026;-62
2021/01/27 07:08:45;;;;;;;33.22;15.45;;;0.60;69.60;;;;;;4997263;28;20034;-63
2021/01/27 07:11:48;;;;;;;12.40;7.53;;;0.70;69.80;;;;;;4988710;28;20104;-63
2021/01/27 07:14:41;;;;;;;9.40;3.60;;;0.70;69.60;;;;;;5000603;28;20510;-60
2021/01/27 07:17:26;;;;;;;3.72;2.50;;;0.70;69.80;;;;;;4999304;28;20029;-61
2021/01/27 07:20:10;;;;;;;;;;;0.70;69.70;;;;;;4999584;28;20034;-63
2021/01/27 07:23:01;;;;;;;4.32;2.63;;;0.70;69.50;;;;;;4996851;28;19918;-63
2021/01/27 07:25:45;;;;;;;2.58;2.17;;;0.70;69.50;;;;;;4999895;28;20027;-63
2021/01/27 07:28:20;;;;;;;3.65;2.45;;;0.70;69.60;;;;;;4982246;28;20530;-62
2021/01/27 07:30:59;;;;;;;3.22;2.70;;;0.70;69.50;;;;;;4981505;28;20030;-62
2021/01/27 07:33:38;;;;;;;10.60;5.60;;;0.70;69.30;;;;;;4999151;28;20039;-61
2021/01/27 07:36:34;;;;;;;7.90;3.22;;;0.70;69.40;;;;;;4989587;28;20042;-63
2021/01/27 07:39:05;;;;;;;12.02;4.90;;;0.70;69.30;;;;;;4993578;28;20485;-64
2021/01/27 07:41:44;;;;;;;9.32;5.00;;;0.70;69.60;;;;;;4979253;28;20089;-64
2021/01/27 07:44:15;;;;;;;18.58;9.30;;;0.80;69.50;;;;;;4979982;28;20121;-63
2021/01/27 07:46:50;;;;;;;9.85;4.78;;;0.80;69.60;;;;;;4978659;28;20057;-64
2021/01/27 07:49:24;;;;;;;9.93;5.53;;;0.80;69.60;;;;;;4979738;28;20544;-61
2021/01/27 07:51:57;;;;;;;18.88;9.43;;;0.80;69.60;;;;;;4978879;28;20042;-62
2021/01/27 07:54:41;;;;;;;5.93;3.60;;;0.80;69.60;;;;;;4962822;28;20524;-61
2021/01/27 07:57:39;;;;;;;5.38;3.30;;;0.90;69.60;;;;;;4979855;28;20038;-61
2021/01/27 08:00:11;;;;;;;4.50;3.28;;;0.90;69.30;;;;;;4978269;28;20368;-60
2021/01/27 08:03:02;;;;;;;2.95;2.30;;;0.90;69.50;;;;;;4969261;28;20039;-62
2021/01/27 08:05:37;;;;;;;5.10;2.40;;;1.00;69.40;;;;;;4976869;28;20723;-62
2021/01/27 08:08:12;;;;;;;3.90;2.30;;;1.00;69.50;;;;;;4976731;28;20034;-62
2021/01/27 08:10:39;;;;;;;3.40;2.10;;;1.00;69.40;;;;;;4976384;28;20033;-62
2021/01/27 08:13:06;;;;;;;6.25;3.47;;;1.00;69.40;;;;;;4975382;28;20031;-61
2021/01/27 08:15:58;;;;;;;9.35;4.50;;;1.10;69.50;;;;;;4978393;28;20724;-62
2021/01/27 08:18:24;;;;;;;6.00;3.45;;;1.10;69.10;;;;;;4958495;28;20035;-61
2021/01/27 08:21:24;;;;;;;7.03;4.07;;;1.10;69.40;;;;;;4978639;28;20042;-62
2021/01/27 08:23:50;;;;;;;6.65;3.45;;;1.10;69.00;;;;;;4990272;28;20022;-61
2021/01/27 08:26:54;;;;;;;7.78;3.33;;;1.20;69.40;;;;;;4980928;28;20093;-60
2021/01/27 08:29:29;;;;;;;6.45;2.90;;;1.20;69.10;;;;;;4985173;28;20037;-62
2021/01/27 08:32:29;;;;;;;4.30;2.42;;;1.20;69.30;;;;;;4996018;28;20153;-62
2021/01/27 08:35:02;;;;;;;3.50;2.55;;;1.30;69.20;;;;;;4993374;28;20035;-62
2021/01/27 08:37:34;;;;;;;5.03;2.85;;;1.30;69.50;;;;;;4977664;28;20470;-62
2021/01/27 08:40:21;;;;;;;5.10;2.90;;;1.30;69.60;;;;;;4978052;28;20068;-62
2021/01/27 08:42:52;;;;;;;8.68;3.03;;;1.30;69.60;;;;;;4983706;28;20421;-62
2021/01/27 08:45:23;;;;;;;6.57;3.50;;;1.30;69.80;;;;;;4979537;28;20030;-61
2021/01/27 08:47:54;;;;;;;5.15;3.40;;;1.30;69.80;;;;;;4997168;28;20046;-61
2021/01/27 08:50:41;;;;;;;5.45;2.90;;;1.30;70.00;;;;;;4997349;28;20089;-62
2021/01/27 08:53:25;;;;;;;3.45;2.70;;;1.30;70.10;;;;;;4997679;28;20041;-62
2021/01/27 08:55:53;;;;;;;5.10;3.08;;;1.40;70.30;;;;;;4995964;28;20536;-62
2021/01/27 08:58:20;;;;;;;4.90;3.00;;;1.30;70.20;;;;;;4996010;28;20445;-62
2021/01/27 09:00:47;;;;;;;6.70;3.50;;;1.40;70.30;;;;;;4992301;28;20466;-62
2021/01/27 09:03:39;;;;;;;9.00;4.28;;;1.40;70.40;;;;;;4975768;28;20049;-61
2021/01/27 09:06:21;;;;;;;8.90;3.63;;;1.40;70.50;;;;;;4970586;28;20409;-62
2021/01/27 09:08:48;;;;;;;7.45;3.40;;;1.40;70.60;;;;;;4992903;28;20458;-60
2021/01/27 09:11:18;;;;;;;6.93;2.97;;;1.40;70.60;;;;;;4973691;28;20126;-62
2021/01/27 09:13:45;;;;;;;8.80;3.88;;;1.40;70.60;;;;;;4977075;28;20067;-64
2021/01/27 09:16:25;;;;;;;9.55;3.70;;;1.50;70.60;;;;;;4960929;28;20038;-64
2021/01/27 09:19:10;;;;;;;8.65;3.88;;;1.50;70.50;;;;;;4991650;28;20034;-61
2021/01/27 09:21:36;;;;;;;7.45;3.50;;;1.50;70.50;;;;;;4978142;28;20039;-61
2021/01/27 09:24:06;;;;;;;7.78;3.53;;;1.50;70.50;;;;;;4977109;28;20038;-62
2021/01/27 09:26:37;;;;;;;4.95;2.83;;;1.50;70.60;;;;;;4977062;28;20042;-61
2021/01/27 09:29:26;;;;;;;4.30;3.20;;;1.50;70.70;;;;;;4974635;28;20141;-62
2021/01/27 09:31:52;;;;;;;6.03;3.28;;;1.50;71.00;;;;;;4976083;28;20057;-61
2021/01/27 09:34:28;;;;;;;6.60;3.78;;;1.50;70.90;;;;;;4976342;28;20034;-61
2021/01/27 09:36:58;;;;;;;9.18;4.78;;;1.50;71.30;;;;;;4972759;28;20375;-61
2021/01/27 09:39:27;;;;;;;8.13;3.92;;;1.50;71.40;;;;;;4976768;28;20035;-61
2021/01/27 09:41:54;;;;;;;5.65;3.80;;;1.50;71.60;;;;;;4976828;28;20142;-62
2021/01/27 09:44:33;;;;;;;5.20;4.30;;;1.50;71.70;;;;;;4960624;28;20026;-60
2021/01/27 09:47:09;;;;;;;5.82;3.35;;;1.50;71.90;;;;;;4975252;28;20030;-62
2021/01/27 09:49:39;;;;;;;5.15;3.10;;;1.60;72.00;;;;;;4980940;28;20042;-61
2021/01/27 09:52:08;;;;;;;6.07;3.10;;;1.60;72.00;;;;;;4980694;28;20034;-61
2021/01/27 09:54:35;;;;;;;4.63;3.38;;;1.60;72.10;;;;;;4981416;28;20502;-61
2021/01/27 09:57:03;;;;;;;5.88;2.90;;;1.50;72.20;;;;;;4982181;28;20057;-61
2021/01/27 09:59:30;;;;;;;4.30;2.97;;;1.50;72.30;;;;;;4964028;28;20453;-61
2021/01/27 10:01:55;;;;;;;5.43;3.60;;;1.60;72.40;;;;;;4978665;28;20093;-61
2021/01/27 10:04:36;;;;;;;4.97;2.80;;;1.60;72.60;;;;;;4980927;28;20031;-61
2021/01/27 10:07:34;;;;;;;5.70;3.38;;;1.50;72.70;;;;;;4980625;28;20026;-62
2021/01/27 10:10:15;;;;;;;6.13;4.65;;;1.50;72.60;;;;;;4988740;28;20037;-61
2021/01/27 10:12:42;;;;;;;6.43;4.10;;;1.50;72.60;;;;;;4979601;28;20042;-61
2021/01/27 10:15:13;;;;;;;5.95;3.60;;;1.40;72.60;;;;;;4964361;28;20030;-61
2021/01/27 10:17:39;;;;;;;5.22;3.33;;;1.40;72.70;;;;;;4980637;28;20045;-62
2021/01/27 10:20:07;;;;;;;6.15;3.80;;;1.40;72.70;;;;;;4962462;28;20038;-61
2021/01/27 10:22:38;;;;;;;6.00;3.45;;;1.40;72.90;;;;;;4978566;28;20047;-62
2021/01/27 10:25:27;;;;;;;7.18;3.33;;;1.30;73.10;;;;;;4981643;28;20034;-61
2021/01/27 10:28:11;;;;;;;7.15;3.50;;;1.30;73.50;;;;;;4978875;28;20045;-62
2021/01/27 10:30:53;;;;;;;4.80;3.13;;;1.30;73.70;;;;;;4979067;28;20038;-61
2021/01/27 10:33:43;;;;;;;5.72;3.67;;;1.20;73.60;;;;;;4989696;28;20062;-61
2021/01/27 10:36:30;;;;;;;7.30;4.47;;;1.20;73.80;;;;;;4968874;28;20043;-61
2021/01/27 10:39:17;;;;;;;7.78;4.65;;;1.20;73.80;;;;;;4979954;28;20042;-64
2021/01/27 10:41:45;;;;;;;11.25;5.75;;;1.20;74.20;;;;;;4987657;28;20047;-64
2021/01/27 10:44:24;;;;;;;11.05;5.00;;;1.10;74.00;;;;;;4963364;28;20033;-65
2021/01/27 10:47:00;;;;;;;11.57;5.63;;;1.10;74.30;;;;;;4996156;28;20533;-64
2021/01/27 10:49:27;;;;;;;6.85;4.57;;;1.10;74.30;;;;;;4979078;28;20066;-64
2021/01/27 10:51:53;;;;;;;10.75;6.70;;;1.00;74.50;;;;;;4977566;28;20043;-62
2021/01/27 10:54:22;;;;;;;8.23;5.07;;;1.00;74.60;;;;;;4979604;28;20030;-61
2021/01/27 10:56:55;;;;;;;6.93;5.10;;;1.00;74.80;;;;;;4966946;28;20034;-61
2021/01/27 10:59:21;;;;;;;7.80;5.50;;;1.00;74.90;;;;;;4989899;28;20059;-61
2021/01/27 11:01:47;;;;;;;9.23;5.40;;;0.90;75.00;;;;;;4961058;28;20469;-61
2021/01/27 11:04:12;;;;;;;8.68;5.00;;;0.90;75.00;;;;;;4961915;28;20039;-62
2021/01/27 11:06:40;;;;;;;7.82;4.55;;;0.90;75.00;;;;;;4978402;28;20705;-61
2021/01/27 11:09:08;;;;;;;7.82;4.63;;;0.90;75.10;;;;;;4960785;28;20088;-62
2021/01/27 11:11:34;;;;;;;10.90;5.72;;;0.90;75.20;;;;;;4979240;28;20207;-62
2021/01/27 11:14:00;;;;;;;7.55;5.10;;;0.90;75.30;;;;;;4979969;28;20143;-62
2021/01/27 11:16:25;;;;;;;5.40;4.03;;;0.90;75.40;;;;;;4960365;28;20536;-61
2021/01/27 11:18:51;;;;;;;5.25;4.10;;;0.90;75.40;;;;;;4978633;28;20046;-62
2021/01/27 11:21:18;;;;;;;5.55;3.60;;;0.90;75.30;;;;;;4980061;28;20142;-62
2021/01/27 11:23:44;;;;;;;6.18;4.45;;;0.90;75.50;;;;;;4980321;28;20036;-60
2021/01/27 11:26:09;;;;;;;6.47;4.40;;;0.80;75.80;;;;;;4977752;28;20034;-61
2021/01/27 11:28:35;;;;;;;6.65;4.30;;;0.80;75.70;;;;;;4976366;28;20496;-61
2021/01/27 11:31:01;;;;;;;7.03;4.10;;;0.80;75.70;;;;;;4979689;28;20038;-62
2021/01/27 11:33:27;;;;;;;6.65;4.57;;;0.80;75.80;;;;;;4978868;28;20031;-61
2021/01/27 11:35:53;;;;;;;7.53;4.70;;;0.90;76.10;;;;;;4978867;28;20037;-61
2021/01/27 11:38:20;;;;;;;6.18;4.57;;;0.90;76.20;;;;;;4979413;28;20031;-61
2021/01/27 11:40:45;;;;;;;8.68;4.93;;;0.90;76.10;;;;;;4996659;28;20053;-61
2021/01/27 11:43:11;;;;;;;7.30;5.00;;;0.90;76.20;;;;;;4999041;28;20034;-60
2021/01/27 11:45:37;;;;;;;9.80;5.30;;;1.00;76.30;;;;;;4997055;28;20038;-61
2021/01/27 11:48:02;;;;;;;9.38;5.55;;;1.00;76.20;;;;;;4993754;28;20487;-62
2021/01/27 11:50:30;;;;;;;8.77;5.50;;;1.00;76.10;;;;;;4996943;28;20033;-61
2021/01/27 11:52:57;;;;;;;6.78;4.40;;;1.10;76.20;;;;;;4998836;28;20505;-61
2021/01/27 11:55:22;;;;;;;7.50;4.97;;;1.10;76.20;;;;;;4997256;28;20042;-60
2021/01/27 11:57:48;;;;;;;7.60;5.00;;;1.10;75.90;;;;;;4998610;28;20045;-62
2021/01/27 12:00:17;;;;;;;5.97;4.40;;;1.20;76.00;;;;;;4998229;28;20030;-61
2021/01/27 12:02:43;;;;;;;5.30;3.95;;;1.20;76.10;;;;;;4996760;28;20038;-59
2021/01/27 12:05:10;;;;;;;6.50;4.65;;;1.20;76.00;;;;;;4980689;28;20100;-61
2021/01/27 12:07:35;;;;;;;9.15;5.30;;;1.20;76.00;;;;;;4998405;28;20030;-62
2021/01/27 12:10:01;;;;;;;6.55;4.18;;;1.20;76.00;;;;;;4995973;28;20043;-61
2021/01/27 12:12:26;;;;;;;6.72;4.57;;;1.20;76.90;;;;;;4995264;28;20244;-62
2021/01/27 12:14:52;;;;;;;5.18;3.92;;;1.30;76.20;;;;;;4998194;28;20042;-61
2021/01/27 12:17:18;;;;;;;6.40;3.92;;;1.30;76.20;;;;;;4998294;28;20548;-62
2021/01/27 12:19:43;;;;;;;5.22;3.88;;;1.40;77.20;;;;;;4997382;28;20033;-62
2021/01/27 12:22:09;;;;;;;5.60;4.05;;;1.40;76.40;;;;;;4998268;28;20509;-62
2021/01/27 12:24:34;;;;;;;6.00;3.70;;;1.50;76.50;;;;;;4998735;28;20049;-61
2021/01/27 12:27:00;;;;;;;5.25;3.50;;;1.50;76.50;;;;;;4988262;28;20117;-61
2021/01/27 12:29:25;;;;;;;4.38;3.30;;;1.60;76.40;;;;;;4995523;28;20041;-62
2021/01/27 12:31:52;;;;;;;3.90;3.00;;;1.60;76.40;;;;;;4980164;28;20037;-61
2021/01/27 12:34:19;;;;;;;3.85;2.90;;;1.70;76.20;;;;;;4998503;28;20073;-61
2021/01/27 12:36:46;;;;;;;4.07;3.17;;;1.70;76.20;;;;;;4979504;28;20079;-61
2021/01/27 12:39:11;;;;;;;4.65;3.10;;;1.70;76.20;;;;;;4997142;28;20042;-60
2021/01/27 12:41:37;;;;;;;3.47;2.88;;;1.70;76.00;;;;;;4998284;28;20461;-59
2021/01/27 12:44:03;;;;;;;3.30;2.92;;;1.80;76.00;;;;;;4980101;28;20112;-61
2021/01/27 12:46:29;;;;;;;4.45;3.55;;;1.80;75.90;;;;;;4997679;28;20033;-60
2021/01/27 12:48:55;;;;;;;5.85;3.72;;;1.80;75.90;;;;;;4979455;28;20038;-59
2021/01/27 12:51:21;;;;;;;4.07;3.58;;;1.90;76.10;;;;;;4978088;28;20039;-62
2021/01/27 12:53:47;;;;;;;5.13;3.17;;;1.90;76.30;;;;;;4994730;28;20030;-60
2021/01/27 12:56:13;;;;;;;3.10;2.80;;;2.00;76.40;;;;;;4979431;28;20471;-60
2021/01/27 12:58:39;;;;;;;3.05;2.70;;;2.00;76.30;;;;;;4997641;28;20505;-61
2021/01/27 13:01:05;;;;;;;4.50;3.25;;;2.00;76.20;;;;;;4979040;28;20038;-62
2021/01/27 13:03:31;;;;;;;6.30;4.65;;;2.10;76.20;;;;;;4997817;28;20134;-61
2021/01/27 13:05:57;;;;;;;7.53;4.97;;;2.20;76.10;;;;;;4997703;28;20590;-61
2021/01/27 13:08:22;;;;;;;3.97;3.05;;;2.20;76.00;;;;;;4997274;28;20049;-62
2021/01/27 13:10:48;;;;;;;14.40;9.25;;;2.30;76.00;;;;;;4995201;28;20034;-62
2021/01/27 13:13:15;;;;;;;8.98;5.03;;;2.30;75.90;;;;;;4979328;28;20038;-62
2021/01/27 13:15:41;;;;;;;4.88;3.75;;;2.40;75.90;;;;;;4997447;28;20560;-61
2021/01/27 13:18:07;;;;;;;2.92;2.63;;;2.40;75.80;;;;;;4980539;28;20121;-62
2021/01/27 13:20:36;;;;;;;3.78;2.70;;;2.50;75.70;;;;;;4977700;28;20222;-61
2021/01/27 13:23:03;;;;;;;2.90;2.40;;;2.50;75.70;;;;;;4996918;28;20033;-62
2021/01/27 13:25:28;;;;;;;2.63;2.20;;;2.50;75.70;;;;;;4998406;28;20031;-62
2021/01/27 13:27:55;;;;;;;2.28;1.80;;;2.60;75.60;;;;;;4979700;28;20584;-62